Time;durP1;ratioP1;P1;durP2;ratioP2;P2;SDS_P1;SDS_P2;PMS_P1;PMS_P2;Temp;Humidity;BMP_temperature;BMP_pressure;BME280_temperature;BME280_humidity;BME280_pressure;Samples;Min_cycle;Max_cycle;Signal;HPM_P1;HPM_P2
2021/06/27 00:00:28;;;;;;;10.80;9.37;;;;;;;;;;5032121;28;20468;-76
2021/06/27 00:02:55;;;;;;;10.30;9.40;;;;;;;;;;5034223;28;20443;-78
2021/06/27 00:05:24;;;;;;;9.60;8.73;;;;;;;;;;5029060;28;20493;-76
2021/06/27 00:07:51;;;;;;;10.60;9.70;;;;;;;;;;5027703;28;20502;-78
2021/06/27 00:10:20;;;;;;;10.63;9.73;;;;;;;;;;5030830;28;20455;-76
2021/06/27 00:12:48;;;;;;;9.90;9.10;;;;;;;;;;5033791;28;20508;-76
2021/06/27 00:15:17;;;;;;;9.70;8.90;;;;;;;;;;5028078;28;20451;-76
2021/06/27 00:17:45;;;;;;;9.07;8.23;;;;;;;;;;5028595;28;20536;-77
2021/06/27 00:20:14;;;;;;;10.20;9.30;;;;;;;;;;5034670;28;20446;-77
2021/06/27 00:22:41;;;;;;;9.27;8.47;;;;;;;;;;5026966;28;20462;-76
2021/06/27 00:25:09;;;;;;;10.93;8.80;;;;;;;;;;5030046;28;20485;-78
2021/06/27 00:27:39;;;;;;;10.80;9.70;;;;;;;;;;5028046;28;20542;-75
2021/06/27 00:30:08;;;;;;;10.07;9.27;;;;;;;;;;5029233;28;20543;-77
2021/06/27 00:32:35;;;;;;;9.80;8.90;;;;;;;;;;5029316;28;20542;-75
2021/06/27 00:35:03;;;;;;;9.57;8.87;;;;;;;;;;5029338;28;20450;-78
2021/06/27 00:37:30;;;;;;;9.73;8.93;;;;;;;;;;5029533;28;20454;-75
2021/06/27 00:39:57;;;;;;;9.20;8.50;;;;;;;;;;5026401;28;20478;-76
2021/06/27 00:42:25;;;;;;;10.40;9.50;;;;;;;;;;5033406;28;20496;-76
2021/06/27 00:44:52;;;;;;;10.13;9.33;;;;;;;;;;5030936;28;20510;-75
2021/06/27 00:47:28;;;;;;;9.97;9.20;;;;;;;;;;5027398;28;20542;-78
2021/06/27 00:49:55;;;;;;;9.93;9.13;;;;;;;;;;5037422;28;20819;-80
2021/06/27 00:52:22;;;;;;;10.37;9.60;;;;;;;;;;5041800;28;20496;-83
2021/06/27 00:54:49;;;;;;;9.97;9.20;;;;;;;;;;5053776;28;20441;-78
2021/06/27 00:57:17;;;;;;;9.70;8.80;;;;;;;;;;5039396;28;20441;-82
2021/06/27 00:59:44;;;;;;;9.60;8.80;;;;;;;;;;5032108;28;21000;-76
2021/06/27 01:02:11;;;;;;;10.17;9.37;;;;;;;;;;5033313;28;20892;-76
2021/06/27 01:04:40;;;;;;;9.63;8.83;;;;;;;;;;5034851;28;21075;-77
2021/06/27 01:07:07;;;;;;;10.90;10.00;;;;;;;;;;5036331;28;20536;-77
2021/06/27 01:09:35;;;;;;;10.47;9.57;;;;;;;;;;5031102;28;20976;-78
2021/06/27 01:12:02;;;;;;;10.70;9.80;;;;;;;;;;5032968;28;21006;-77
2021/06/27 01:14:29;;;;;;;11.10;10.20;;;;;;;;;;5038001;28;20477;-75
2021/06/27 01:16:57;;;;;;;10.77;9.87;;;;;;;;;;5028396;28;20898;-75
2021/06/27 01:19:24;;;;;;;10.67;9.77;;;;;;;;;;5030872;28;20464;-81
2021/06/27 01:21:54;;;;;;;11.23;10.33;;;;;;;;;;5033194;28;20527;-75
2021/06/27 01:24:21;;;;;;;11.93;10.63;;;;;;;;;;5032435;28;20478;-77
2021/06/27 01:26:48;;;;;;;10.60;9.50;;;;;;;;;;5031582;28;20453;-76
2021/06/27 01:29:17;;;;;;;10.97;9.97;;;;;;;;;;5033293;28;20969;-76
2021/06/27 01:31:45;;;;;;;11.87;10.60;;;;;;;;;;5032281;28;20662;-76
2021/06/27 01:34:13;;;;;;;10.70;9.53;;;;;;;;;;5031759;28;20953;-77
2021/06/27 01:36:40;;;;;;;11.47;10.47;;;;;;;;;;5034357;28;20875;-77
2021/06/27 01:39:08;;;;;;;11.43;10.43;;;;;;;;;;5025927;28;21813;-79
2021/06/27 01:41:36;;;;;;;13.60;10.30;;;;;;;;;;5037549;28;20535;-76
2021/06/27 01:44:03;;;;;;;10.53;9.57;;;;;;;;;;5032883;28;20548;-76
2021/06/27 01:46:30;;;;;;;11.67;10.57;;;;;;;;;;5034359;28;20461;-77
2021/06/27 01:48:57;;;;;;;11.40;10.30;;;;;;;;;;5029147;28;20521;-78
2021/06/27 01:51:24;;;;;;;11.23;10.00;;;;;;;;;;5029183;28;20470;-76
2021/06/27 01:53:51;;;;;;;11.40;10.40;;;;;;;;;;5031726;28;20552;-76
2021/06/27 01:56:20;;;;;;;10.87;9.87;;;;;;;;;;5027154;28;20535;-76
2021/06/27 01:58:50;;;;;;;12.17;11.07;;;;;;;;;;5032516;28;20446;-76
2021/06/27 02:01:18;;;;;;;11.73;10.70;;;;;;;;;;5029575;28;20557;-76
2021/06/27 02:03:45;;;;;;;10.57;9.57;;;;;;;;;;5031996;28;20468;-75
2021/06/27 02:06:13;;;;;;;12.30;11.20;;;;;;;;;;5031452;28;20471;-76
2021/06/27 02:08:41;;;;;;;11.23;10.33;;;;;;;;;;5032966;28;20876;-77
2021/06/27 02:11:09;;;;;;;11.87;10.70;;;;;;;;;;5030316;28;20472;-78
2021/06/27 02:13:38;;;;;;;11.47;10.47;;;;;;;;;;5040912;28;20446;-80
2021/06/27 02:16:05;;;;;;;11.50;10.60;;;;;;;;;;5031647;28;20506;-76
2021/06/27 02:18:34;;;;;;;12.90;11.60;;;;;;;;;;5029538;28;20474;-76
2021/06/27 02:21:02;;;;;;;12.50;11.50;;;;;;;;;;5027244;28;20465;-76
2021/06/27 02:23:30;;;;;;;12.00;11.00;;;;;;;;;;5032256;28;20481;-76
2021/06/27 02:25:58;;;;;;;12.13;11.13;;;;;;;;;;5029094;28;20569;-78
2021/06/27 02:28:25;;;;;;;12.37;11.37;;;;;;;;;;5030907;28;20566;-76
2021/06/27 02:30:54;;;;;;;12.87;11.77;;;;;;;;;;5039350;28;20566;-76
2021/06/27 02:33:21;;;;;;;13.13;11.83;;;;;;;;;;5032610;28;20451;-76
2021/06/27 02:35:49;;;;;;;12.97;11.97;;;;;;;;;;5030746;28;20497;-77
2021/06/27 02:38:16;;;;;;;11.70;10.70;;;;;;;;;;5029953;28;20478;-77
2021/06/27 02:40:43;;;;;;;13.10;12.00;;;;;;;;;;5027109;28;20442;-78
2021/06/27 02:43:11;;;;;;;12.83;11.77;;;;;;;;;;5026511;28;20544;-81
2021/06/27 02:45:38;;;;;;;13.93;12.73;;;;;;;;;;4988554;28;1041992;-77
2021/06/27 02:48:08;;;;;;;13.93;12.17;;;;;;;;;;5029246;28;20233;-78
2021/06/27 02:50:38;;;;;;;12.23;11.23;;;;;;;;;;5037760;28;20465;-76
2021/06/27 02:53:05;;;;;;;12.83;11.63;;;;;;;;;;5042801;28;20455;-79
2021/06/27 02:55:32;;;;;;;13.20;12.13;;;;;;;;;;5039168;28;20454;-76
2021/06/27 02:58:00;;;;;;;13.20;12.00;;;;;;;;;;5045450;28;20537;-79
2021/06/27 03:00:29;;;;;;;13.50;12.40;;;;;;;;;;5040923;28;20506;-76
2021/06/27 03:02:56;;;;;;;12.63;11.53;;;;;;;;;;5034697;28;20518;-77
2021/06/27 03:05:24;;;;;;;13.73;12.53;;;;;;;;;;5033466;28;20612;-75
2021/06/27 03:07:52;;;;;;;12.67;11.67;;;;;;;;;;5030994;28;20465;-77
2021/06/27 03:10:20;;;;;;;14.17;12.90;;;;;;;;;;5035439;28;20457;-76
2021/06/27 03:12:48;;;;;;;14.57;13.30;;;;;;;;;;5032750;28;20493;-75
2021/06/27 03:15:16;;;;;;;14.97;13.70;;;;;;;;;;5032879;28;20448;-75
2021/06/27 03:17:44;;;;;;;14.50;13.20;;;;;;;;;;5026179;28;20481;-84
2021/06/27 03:20:12;;;;;;;13.33;12.33;;;;;;;;;;5034395;28;20505;-78
2021/06/27 03:22:41;;;;;;;14.23;12.93;;;;;;;;;;5030033;28;20457;-75
2021/06/27 03:25:09;;;;;;;13.53;12.33;;;;;;;;;;5031183;28;20454;-76
2021/06/27 03:27:37;;;;;;;14.63;13.23;;;;;;;;;;5029595;28;20568;-76
2021/06/27 03:30:04;;;;;;;14.33;13.17;;;;;;;;;;5040863;28;20522;-75
2021/06/27 03:32:31;;;;;;;13.00;11.80;;;;;;;;;;5041999;28;20478;-77
2021/06/27 03:34:58;;;;;;;13.93;12.70;;;;;;;;;;5041216;28;20461;-77
2021/06/27 03:37:26;;;;;;;13.77;12.30;;;;;;;;;;5037562;28;20489;-78
2021/06/27 03:39:54;;;;;;;13.43;12.07;;;;;;;;;;5033999;28;20450;-80
2021/06/27 03:42:21;;;;;;;14.40;12.90;;;;;;;;;;5044702;28;20546;-81
2021/06/27 03:44:49;;;;;;;14.43;12.90;;;;;;;;;;5035516;28;20461;-77
2021/06/27 03:47:16;;;;;;;13.90;12.70;;;;;;;;;;5041000;28;20474;-76
2021/06/27 03:49:43;;;;;;;12.80;11.80;;;;;;;;;;5030798;28;20486;-76
2021/06/27 03:52:10;;;;;;;11.77;10.87;;;;;;;;;;5031714;28;20529;-76
2021/06/27 03:54:37;;;;;;;14.57;13.03;;;;;;;;;;5031242;28;20454;-78
2021/06/27 03:57:06;;;;;;;13.43;11.97;;;;;;;;;;5029817;28;20813;-76
2021/06/27 03:59:34;;;;;;;14.47;13.20;;;;;;;;;;5030966;28;21997;-76
2021/06/27 04:02:01;;;;;;;13.13;12.03;;;;;;;;;;5028621;28;20533;-76
2021/06/27 04:04:28;;;;;;;13.10;11.80;;;;;;;;;;5024165;28;20542;-77
2021/06/27 04:06:55;;;;;;;13.33;12.23;;;;;;;;;;5033419;28;21449;-76
2021/06/27 04:09:22;;;;;;;13.10;12.00;;;;;;;;;;5030157;28;20533;-77
2021/06/27 04:11:49;;;;;;;12.17;11.17;;;;;;;;;;5028887;28;20830;-75
2021/06/27 04:14:18;;;;;;;12.37;11.37;;;;;;;;;;5028518;28;20447;-76
2021/06/27 04:16:45;;;;;;;11.77;10.77;;;;;;;;;;5027447;28;20478;-75
2021/06/27 04:19:12;;;;;;;11.60;10.70;;;;;;;;;;5025594;28;21279;-77
2021/06/27 04:21:40;;;;;;;11.27;10.43;;;;;;;;;;5022217;28;20464;-76
2021/06/27 04:24:07;;;;;;;11.50;10.60;;;;;;;;;;5025935;28;20481;-76
2021/06/27 04:26:34;;;;;;;10.40;9.60;;;;;;;;;;5027582;28;20571;-78
2021/06/27 04:29:01;;;;;;;11.10;10.17;;;;;;;;;;5026910;28;20468;-77
2021/06/27 04:31:30;;;;;;;10.70;9.90;;;;;;;;;;5027500;28;20447;-76
2021/06/27 04:33:57;;;;;;;11.60;10.40;;;;;;;;;;5030309;28;20534;-76
2021/06/27 04:36:24;;;;;;;10.67;9.77;;;;;;;;;;5033938;28;20532;-75
2021/06/27 04:38:52;;;;;;;10.90;10.00;;;;;;;;;;5030657;28;20757;-80
2021/06/27 04:41:19;;;;;;;9.57;8.70;;;;;;;;;;5026698;28;20543;-78
2021/06/27 04:43:46;;;;;;;11.43;10.53;;;;;;;;;;5031930;28;20926;-80
2021/06/27 04:46:13;;;;;;;9.00;8.20;;;;;;;;;;5029967;28;20551;-80
2021/06/27 04:48:42;;;;;;;9.00;8.20;;;;;;;;;;5026970;28;20466;-80
2021/06/27 04:51:09;;;;;;;10.40;9.60;;;;;;;;;;5031757;28;20479;-79
2021/06/27 04:53:36;;;;;;;9.30;8.60;;;;;;;;;;5027173;28;20478;-79
2021/06/27 04:56:03;;;;;;;9.50;8.80;;;;;;;;;;5031460;28;20456;-83
2021/06/27 04:58:31;;;;;;;8.80;8.10;;;;;;;;;;5025684;28;21017;-80
2021/06/27 05:00:58;;;;;;;9.40;8.70;;;;;;;;;;5031876;28;20451;-81
2021/06/27 05:03:25;;;;;;;9.20;8.60;;;;;;;;;;5036464;28;20896;-83
2021/06/27 05:05:53;;;;;;;8.77;8.17;;;;;;;;;;5039829;28;20480;-79
2021/06/27 05:08:20;;;;;;;9.30;8.60;;;;;;;;;;5026025;28;20591;-79
2021/06/27 05:10:48;;;;;;;9.60;8.80;;;;;;;;;;5030419;28;20456;-80
2021/06/27 05:13:15;;;;;;;9.90;9.13;;;;;;;;;;5031820;28;20462;-79
2021/06/27 05:15:42;;;;;;;9.10;8.40;;;;;;;;;;5032942;28;20527;-80
2021/06/27 05:18:09;;;;;;;9.83;9.03;;;;;;;;;;5030686;28;20866;-79
2021/06/27 05:20:36;;;;;;;10.27;9.47;;;;;;;;;;5030754;28;20503;-79
2021/06/27 05:23:05;;;;;;;9.17;8.33;;;;;;;;;;5027195;28;20556;-79
2021/06/27 05:25:32;;;;;;;9.93;9.03;;;;;;;;;;5030341;28;20473;-79
2021/06/27 05:28:00;;;;;;;8.67;8.07;;;;;;;;;;5027876;28;20491;-80
2021/06/27 05:30:27;;;;;;;9.80;9.00;;;;;;;;;;5039338;28;20920;-79
2021/06/27 05:32:56;;;;;;;9.20;8.50;;;;;;;;;;5032780;28;20835;-81
2021/06/27 05:35:23;;;;;;;9.37;8.67;;;;;;;;;;5034849;28;20994;-80
2021/06/27 05:37:50;;;;;;;9.60;8.90;;;;;;;;;;5032179;28;20445;-78
2021/06/27 05:40:19;;;;;;;9.60;8.80;;;;;;;;;;5038529;28;20457;-78
2021/06/27 05:42:47;;;;;;;10.70;9.80;;;;;;;;;;5039004;28;20483;-79
2021/06/27 05:45:14;;;;;;;10.97;10.07;;;;;;;;;;5038817;28;20521;-80
2021/06/27 05:47:42;;;;;;;10.40;9.50;;;;;;;;;;5037822;28;20588;-82
2021/06/27 05:50:09;;;;;;;11.40;10.20;;;;;;;;;;5034131;28;20536;-80
2021/06/27 05:52:37;;;;;;;11.07;10.10;;;;;;;;;;5036082;28;20524;-78
2021/06/27 05:55:06;;;;;;;10.90;10.00;;;;;;;;;;5035363;28;20820;-79
2021/06/27 05:57:36;;;;;;;11.00;10.20;;;;;;;;;;5034410;28;20456;-79
2021/06/27 06:00:04;;;;;;;10.20;9.40;;;;;;;;;;5033543;28;20544;-80
2021/06/27 06:02:31;;;;;;;10.50;9.70;;;;;;;;;;5033585;28;20956;-79
2021/06/27 06:05:00;;;;;;;10.67;9.87;;;;;;;;;;5040373;28;20463;-80
2021/06/27 06:07:27;;;;;;;9.60;9.00;;;;;;;;;;5040279;28;20473;-79
2021/06/27 06:09:54;;;;;;;10.23;9.43;;;;;;;;;;5035762;28;20524;-80
2021/06/27 06:12:21;;;;;;;10.13;9.33;;;;;;;;;;5031354;28;20457;-79
2021/06/27 06:14:50;;;;;;;9.20;8.60;;;;;;;;;;5035768;28;21562;-80
2021/06/27 06:17:17;;;;;;;9.90;9.10;;;;;;;;;;5034421;28;20501;-80
2021/06/27 06:19:49;;;;;;;10.30;9.50;;;;;;;;;;5033306;28;20452;-80
2021/06/27 06:22:16;;;;;;;9.90;9.23;;;;;;;;;;5031353;28;20541;-80
2021/06/27 06:24:43;;;;;;;9.63;9.00;;;;;;;;;;5037155;28;20499;-80
2021/06/27 06:27:10;;;;;;;10.10;9.40;;;;;;;;;;5042384;28;20530;-81
2021/06/27 06:29:37;;;;;;;9.83;9.17;;;;;;;;;;5051159;28;20457;-79
2021/06/27 06:32:06;;;;;;;9.47;8.77;;;;;;;;;;5033332;28;20443;-78
2021/06/27 06:34:33;;;;;;;10.77;9.87;;;;;;;;;;5033686;28;20512;-77
2021/06/27 06:37:01;;;;;;;9.27;8.57;;;;;;;;;;5032454;28;20446;-77
2021/06/27 06:39:28;;;;;;;10.10;9.40;;;;;;;;;;5029619;28;20524;-77
2021/06/27 06:41:55;;;;;;;10.87;9.97;;;;;;;;;;5044127;28;20503;-81
2021/06/27 06:44:22;;;;;;;10.13;9.33;;;;;;;;;;5052432;28;20467;-85
2021/06/27 06:46:50;;;;;;;8.80;8.20;;;;;;;;;;5043569;28;20470;-81
2021/06/27 06:49:19;;;;;;;9.40;8.70;;;;;;;;;;5043532;28;20488;-82
2021/06/27 06:51:46;;;;;;;9.83;8.93;;;;;;;;;;5050957;28;20472;-81
2021/06/27 06:54:13;;;;;;;10.23;9.43;;;;;;;;;;5047328;28;20457;-85
2021/06/27 06:56:41;;;;;;;9.70;9.00;;;;;;;;;;5059135;28;20475;-84
2021/06/27 06:59:08;;;;;;;10.60;9.80;;;;;;;;;;5048722;28;20469;-85
2021/06/27 07:01:37;;;;;;;9.80;9.10;;;;;;;;;;5046028;28;20543;-84
2021/06/27 07:04:06;;;;;;;9.13;8.43;;;;;;;;;;5045832;28;20465;-85
2021/06/27 07:06:34;;;;;;;10.10;9.37;;;;;;;;;;5049626;28;20454;-87
2021/06/27 07:09:02;;;;;;;9.67;8.90;;;;;;;;;;5050248;28;20444;-86
2021/06/27 07:11:29;;;;;;;10.33;9.53;;;;;;;;;;5047720;28;21234;-82
2021/06/27 07:13:56;;;;;;;10.53;9.30;;;;;;;;;;5046385;28;20460;-84
2021/06/27 07:16:25;;;;;;;9.77;8.90;;;;;;;;;;5045416;28;20493;-84
2021/06/27 07:18:52;;;;;;;9.13;8.43;;;;;;;;;;5044029;28;20459;-85
2021/06/27 07:21:19;;;;;;;10.97;10.23;;;;;;;;;;5046121;28;20495;-82
2021/06/27 07:23:48;;;;;;;10.37;9.47;;;;;;;;;;5039402;28;20462;-83
2021/06/27 07:26:16;;;;;;;9.47;8.67;;;;;;;;;;5039952;28;20535;-85
2021/06/27 07:28:43;;;;;;;9.47;8.77;;;;;;;;;;5042744;28;20466;-82
2021/06/27 07:31:10;;;;;;;9.77;9.07;;;;;;;;;;5048436;28;20467;-83
2021/06/27 07:33:40;;;;;;;9.80;9.00;;;;;;;;;;5041581;28;20473;-84
2021/06/27 07:36:08;;;;;;;9.70;8.90;;;;;;;;;;5034375;28;20454;-81
2021/06/27 07:38:36;;;;;;;9.70;9.10;;;;;;;;;;5037373;28;20457;-85
2021/06/27 07:41:05;;;;;;;9.10;8.50;;;;;;;;;;5046853;28;20490;-83
2021/06/27 07:43:34;;;;;;;9.53;8.90;;;;;;;;;;5042245;28;20456;-84
2021/06/27 07:46:01;;;;;;;9.87;9.07;;;;;;;;;;5038181;28;20480;-81
2021/06/27 07:48:28;;;;;;;9.40;8.60;;;;;;;;;;5046009;28;20484;-84
2021/06/27 07:50:56;;;;;;;10.30;9.50;;;;;;;;;;5048567;28;20839;-81
2021/06/27 07:53:23;;;;;;;9.00;8.40;;;;;;;;;;5045170;28;20462;-85
2021/06/27 07:55:50;;;;;;;8.80;8.20;;;;;;;;;;5047328;28;20440;-81
2021/06/27 07:58:19;;;;;;;9.43;8.63;;;;;;;;;;5041064;28;20445;-81
2021/06/27 08:00:46;;;;;;;9.30;8.60;;;;;;;;;;5029038;28;20462;-79
2021/06/27 08:03:13;;;;;;;9.80;9.00;;;;;;;;;;5033774;28;20523;-81
2021/06/27 08:05:41;;;;;;;11.20;8.47;;;;;;;;;;5036560;28;20484;-80
2021/06/27 08:08:08;;;;;;;9.40;8.60;;;;;;;;;;5041290;28;20477;-78
2021/06/27 08:10:35;;;;;;;9.60;8.90;;;;;;;;;;5038756;28;20494;-79
2021/06/27 08:13:03;;;;;;;8.77;8.07;;;;;;;;;;5035169;28;20818;-79
2021/06/27 08:15:31;;;;;;;8.33;7.80;;;;;;;;;;5033646;28;20622;-79
2021/06/27 08:17:59;;;;;;;9.00;8.20;;;;;;;;;;5029495;28;20456;-81
2021/06/27 08:20:26;;;;;;;9.10;8.43;;;;;;;;;;5036050;28;20495;-81
2021/06/27 08:22:54;;;;;;;8.50;7.90;;;;;;;;;;5035450;28;20482;-79
2021/06/27 08:25:21;;;;;;;8.17;7.57;;;;;;;;;;5044939;28;20466;-81
2021/06/27 08:27:49;;;;;;;7.70;7.10;;;;;;;;;;5047546;28;20481;-89
2021/06/27 08:30:17;;;;;;;8.80;8.20;;;;;;;;;;5048526;28;20490;-79
2021/06/27 08:32:46;;;;;;;9.47;8.67;;;;;;;;;;5047462;28;20455;-85
2021/06/27 08:35:14;;;;;;;7.90;7.40;;;;;;;;;;5040660;28;20933;-80
2021/06/27 08:37:42;;;;;;;8.73;8.03;;;;;;;;;;5045275;28;20446;-80
2021/06/27 08:40:10;;;;;;;8.83;8.23;;;;;;;;;;5042500;28;20541;-83
2021/06/27 08:42:39;;;;;;;7.90;7.40;;;;;;;;;;5036524;28;20596;-80
2021/06/27 08:45:08;;;;;;;8.93;8.33;;;;;;;;;;5042366;28;20557;-82
2021/06/27 08:47:35;;;;;;;8.73;8.13;;;;;;;;;;5042913;28;20972;-79
2021/06/27 08:50:04;;;;;;;8.10;7.40;;;;;;;;;;5038794;28;20516;-79
2021/06/27 08:52:32;;;;;;;9.00;8.37;;;;;;;;;;5030724;28;20481;-81
2021/06/27 08:55:00;;;;;;;8.63;8.03;;;;;;;;;;5031070;28;20965;-79
2021/06/27 08:57:27;;;;;;;7.40;6.90;;;;;;;;;;5039377;28;20502;-84
2021/06/27 08:59:54;;;;;;;7.93;7.43;;;;;;;;;;5034993;28;20476;-80
2021/06/27 09:02:22;;;;;;;8.60;8.00;;;;;;;;;;5041481;28;20532;-80
2021/06/27 09:04:49;;;;;;;8.43;7.83;;;;;;;;;;5033808;28;20450;-84
2021/06/27 09:07:27;;;;;;;8.13;7.53;;;;;;;;;;5044114;28;20480;-83
2021/06/27 09:09:54;;;;;;;7.40;6.83;;;;;;;;;;5035562;28;20524;-81
2021/06/27 09:12:21;;;;;;;8.40;7.80;;;;;;;;;;5039864;28;20969;-86
2021/06/27 09:14:49;;;;;;;7.50;7.00;;;;;;;;;;5043935;28;20453;-80
2021/06/27 09:17:17;;;;;;;7.37;6.90;;;;;;;;;;5042045;28;20507;-83
2021/06/27 09:19:57;;;;;;;7.23;6.73;;;;;;;;;;5041012;28;20455;-81
2021/06/27 09:22:28;;;;;;;6.83;6.43;;;;;;;;;;5033551;28;20470;-80
2021/06/27 09:24:55;;;;;;;7.37;6.77;;;;;;;;;;5043737;28;20450;-80
2021/06/27 09:27:23;;;;;;;6.90;6.50;;;;;;;;;;5036787;28;20474;-84
2021/06/27 09:29:51;;;;;;;7.10;6.60;;;;;;;;;;5038858;28;20460;-84
2021/06/27 09:32:18;;;;;;;7.07;6.57;;;;;;;;;;5042767;28;20447;-80
2021/06/27 09:34:46;;;;;;;6.20;5.73;;;;;;;;;;5035390;28;20458;-82
2021/06/27 09:37:14;;;;;;;6.80;6.30;;;;;;;;;;5050689;28;20477;-81
2021/06/27 09:39:57;;;;;;;6.80;6.40;;;28.40;52.20;;;;;;5043464;28;20450;-82
2021/06/27 09:42:25;;;;;;;6.03;5.63;;;;;;;;;;5047031;28;20453;-80
2021/06/27 09:45:00;;;;;;;5.90;5.40;;;;;;;;;;5039341;28;20463;-80
2021/06/27 09:47:28;;;;;;;6.00;5.70;;;;;;;;;;5036229;28;20463;-82
2021/06/27 09:49:55;;;;;;;6.50;6.10;;;;;;;;;;5029853;28;89917;-80
2021/06/27 09:52:35;;;;;;;6.70;6.27;;;;;;;;;;5042514;28;20448;-80
2021/06/27 09:55:07;;;;;;;6.83;6.33;;;;;;;;;;5040549;28;20458;-81
2021/06/27 09:57:35;;;;;;;5.50;5.10;;;26.90;57.40;;;;;;5043284;28;20463;-83
2021/06/27 10:00:02;;;;;;;6.10;5.70;;;27.40;56.60;;;;;;5034353;28;20449;-80
2021/06/27 10:02:29;;;;;;;6.23;5.80;;;;;;;;;;5033339;28;20522;-83
2021/06/27 10:04:56;;;;;;;6.07;5.70;;;;;;;;;;5053824;28;21235;-81
2021/06/27 10:07:37;;;;;;;6.67;6.27;;;;;;;;;;5045815;28;20464;-82
2021/06/27 10:10:20;;;;;;;7.00;6.50;;;;;;;;;;5056523;28;20473;-87
2021/06/27 10:12:47;;;;;;;5.83;5.43;;;27.40;56.40;;;;;;5047404;28;20434;-87
2021/06/27 10:15:16;;;;;;;6.33;5.80;;;27.30;57.00;;;;;;5047990;28;20447;-87
2021/06/27 10:17:56;;;;;;;5.67;5.30;;;28.20;54.90;;;;;;5049785;28;20557;-88
2021/06/27 10:20:23;;;;;;;5.20;4.80;;;28.70;54.30;;;;;;5053717;28;20441;-87
2021/06/27 10:22:51;;;;;;;6.75;5.50;;;28.90;53.40;;;;;;5048868;28;20457;-80
2021/06/27 10:25:19;;;;;;;5.60;5.20;;;29.00;53.00;;;;;;5039096;28;128590;-81
2021/06/27 10:27:50;;;;;;;5.20;4.80;;;28.40;53.90;;;;;;5043731;28;20535;-92
2021/06/27 10:30:18;;;;;;;5.47;5.07;;;28.00;53.90;;;;;;5043816;28;20446;-89
2021/06/27 10:32:51;;;;;;;5.20;4.47;;;28.10;54.20;;;;;;5044471;28;20456;-88
2021/06/27 10:35:20;;;;;;;4.67;4.30;;;28.70;52.90;;;;;;5050797;28;20457;-88
2021/06/27 10:37:51;;;;;;;4.70;4.40;;;29.30;51.50;;;;;;5051850;28;20446;-87
2021/06/27 10:43:08;;;;;;;3.80;3.60;;;29.60;50.00;;;;;;5043031;28;20447;-89
2021/06/27 10:45:59;;;;;;;3.27;3.07;;;30.00;49.20;;;;;;5048888;28;20458;-87
2021/06/27 10:48:42;;;;;;;3.30;3.13;;;29.20;49.60;;;;;;5042491;28;20469;-88
2021/06/27 10:51:12;;;;;;;3.40;3.07;;;29.80;49.20;;;;;;5061459;28;20464;-88
2021/06/27 10:54:13;;;;;;;3.90;3.60;;;30.20;48.20;;;;;;5044369;28;20455;-88
2021/06/27 10:57:02;;;;;;;4.63;4.33;;;28.80;49.40;;;;;;5023703;28;20464;-91
2021/06/27 10:59:57;;;;;;;3.50;3.30;;;28.50;50.90;;;;;;5035729;28;20466;-89
2021/06/27 11:05:56;;;;;;;3.67;3.47;;;29.50;49.00;;;;;;5042851;28;20500;-89
2021/06/27 11:08:36;;;;;;;3.83;3.63;;;29.90;48.30;;;;;;5049538;28;20461;-87
2021/06/27 11:11:13;;;;;;;3.73;3.43;;;30.30;48.70;;;;;;5051276;28;20438;-87
2021/06/27 11:13:42;;;;;;;5.37;3.53;;;30.60;48.20;;;;;;5044909;28;20516;-87
2021/06/27 11:16:16;;;;;;;3.30;3.00;;;30.40;48.10;;;;;;5039029;28;20485;-89
2021/06/27 11:18:47;;;;;;;3.50;3.30;;;30.70;48.20;;;;;;5043725;28;20505;-88
2021/06/27 11:21:34;;;;;;;4.20;3.90;;;30.70;48.20;;;;;;5046034;28;20796;-87
2021/06/27 11:24:06;;;;;;;3.73;3.53;;;30.70;48.60;;;;;;5053191;28;20469;-87
2021/06/27 11:26:55;;;;;;;3.30;3.10;;;30.40;48.30;;;;;;5048674;28;20447;-88
2021/06/27 11:29:59;;;;;;;3.90;3.63;;;29.70;47.30;;;;;;5049625;28;20478;-86
2021/06/27 11:32:48;;;;;;;4.07;3.77;;;;;;;;;;5052279;28;20466;-88
2021/06/27 11:35:42;;;;;;;3.60;3.40;;;30.10;47.90;;;;;;5052056;28;20465;-88
2021/06/27 11:38:27;;;;;;;3.30;3.10;;;30.10;47.90;;;;;;5051113;28;20493;-88
2021/06/27 11:40:54;;;;;;;4.10;3.70;;;29.40;47.20;;;;;;5049806;28;20482;-84
2021/06/27 11:43:44;;;;;;;3.67;3.47;;;;;;;;;;5056365;28;20457;-79
2021/06/27 11:46:30;;;;;;;3.80;3.60;;;29.60;47.30;;;;;;5047130;28;20461;-87
2021/06/27 11:48:57;;;;;;;3.77;3.57;;;29.90;48.00;;;;;;5052707;28;20502;-82
2021/06/27 11:51:35;;;;;;;4.10;3.90;;;30.20;48.40;;;;;;5049507;28;20507;-84
2021/06/27 11:54:05;;;;;;;4.07;3.80;;;30.40;48.60;;;;;;5049088;28;20456;-82
2021/06/27 11:56:48;;;;;;;4.47;4.18;;;;;;;;;;5047570;28;20475;-81
2021/06/27 11:59:15;;;;;;;3.67;3.47;;;;;;;;;;5038829;28;20597;-79
2021/06/27 12:01:43;;;;;;;4.10;3.70;;;30.10;48.40;;;;;;5044051;28;20469;-80
2021/06/27 12:04:11;;;;;;;4.30;3.40;;;29.60;48.80;;;;;;5042526;28;21135;-82
2021/06/27 12:06:38;;;;;;;3.83;3.63;;;;;;;;;;5041424;28;20504;-82
2021/06/27 12:09:05;;;;;;;4.10;3.80;;;;;;;;;;5043118;28;20491;-85
2021/06/27 12:11:33;;;;;;;3.90;3.60;;;;;;;;;;5035758;28;20226;-83
2021/06/27 12:14:03;;;;;;;3.77;3.57;;;;;;;;;;5042228;28;20458;-83
2021/06/27 12:16:31;;;;;;;3.90;3.70;;;;;;;;;;5045215;28;20527;-82
2021/06/27 12:19:00;;;;;;;3.90;3.70;;;;;;;;;;5044139;28;20463;-82
2021/06/27 12:21:28;;;;;;;3.97;3.67;;;;;;;;;;5043750;28;20450;-82
2021/06/27 12:23:57;;;;;;;3.90;3.70;;;;;;;;;;5042185;28;20535;-83
2021/06/27 12:26:25;;;;;;;4.27;3.97;;;29.80;48.70;;;;;;5043804;28;20490;-83
2021/06/27 12:28:54;;;;;;;3.97;3.77;;;29.50;48.80;;;;;;5045182;28;20473;-82
2021/06/27 12:31:23;;;;;;;4.37;4.13;;;29.70;48.70;;;;;;5045467;28;20864;-82
2021/06/27 12:33:55;;;;;;;4.10;3.63;;;30.30;48.60;;;;;;5039287;28;20462;-82
2021/06/27 12:36:28;;;;;;;4.10;3.90;;;30.80;48.00;;;;;;5049862;28;20446;-82
2021/06/27 12:53:42;;;;;;;5.00;4.60;;;31.80;53.00;;;;;;5062976;27;74964;-72
2021/06/27 12:57:26;;;;;;;4.53;4.13;;;27.50;53.20;;;;;;5132289;27;20573;-80
2021/06/27 12:59:55;;;;;;;6.30;4.10;;;28.10;52.30;;;;;;5097368;28;20461;-81
2021/06/27 13:02:32;;;;;;;4.50;4.30;;;28.30;51.00;;;;;;5086345;28;20464;-80
2021/06/27 13:05:01;;;;;;;4.03;3.73;;;28.40;51.20;;;;;;5083717;28;20443;-81
2021/06/27 13:07:31;;;;;;;4.10;3.70;;;28.70;50.80;;;;;;5080632;28;20444;-80
2021/06/27 13:10:03;;;;;;;4.30;4.00;;;28.80;50.60;;;;;;5090252;28;20454;-80
2021/06/27 13:12:32;;;;;;;4.47;4.17;;;28.70;50.90;;;;;;5090359;28;20546;-80
2021/06/27 13:15:18;;;;;;;3.83;3.63;;;28.70;50.50;;;;;;5085110;28;20994;-79
2021/06/27 13:17:46;;;;;;;3.70;3.47;;;28.70;50.40;;;;;;5065524;28;20486;-79
2021/06/27 13:20:17;;;;;;;4.90;4.60;;;28.50;49.50;;;;;;5065348;28;20509;-79
2021/06/27 13:23:05;;;;;;;4.23;3.93;;;28.40;50.80;;;;;;5064355;28;20834;-80
2021/06/27 13:25:48;;;;;;;3.93;3.70;;;28.90;50.10;;;;;;5068696;28;20449;-80
2021/06/27 13:28:23;;;;;;;3.80;3.60;;;29.20;49.70;;;;;;5076566;28;20466;-79
2021/06/27 13:30:54;;;;;;;3.70;3.50;;;29.80;49.60;;;;;;5077155;28;20463;-79
2021/06/27 13:33:24;;;;;;;4.00;3.80;;;29.20;48.60;;;;;;5067746;28;20453;-79
2021/06/27 13:35:59;;;;;;;3.90;3.50;;;28.60;49.40;;;;;;5077256;28;20480;-80
2021/06/27 13:38:27;;;;;;;3.40;3.23;;;29.10;49.10;;;;;;5067567;28;20479;-80
2021/06/27 13:40:54;;;;;;;3.57;3.37;;;29.50;49.50;;;;;;5074962;28;20524;-79
2021/06/27 13:43:23;;;;;;;3.80;3.60;;;30.00;49.30;;;;;;5072847;28;20852;-80
2021/06/27 13:45:51;;;;;;;3.97;3.77;;;29.90;48.40;;;;;;5075957;28;20501;-80
2021/06/27 13:48:18;;;;;;;3.70;3.40;;;28.80;48.70;;;;;;5070122;28;20441;-80
2021/06/27 13:50:46;;;;;;;4.00;3.70;;;28.40;49.60;;;;;;5063890;28;20437;-80
2021/06/27 13:53:13;;;;;;;4.17;3.97;;;28.20;49.30;;;;;;5078840;28;20472;-81
2021/06/27 13:55:40;;;;;;;3.70;3.50;;;28.00;49.60;;;;;;5083017;28;20486;-82
2021/06/27 13:58:07;;;;;;;4.17;3.87;;;27.90;49.50;;;;;;5088969;28;20461;-81
2021/06/27 14:00:37;;;;;;;4.17;3.87;;;28.00;49.50;;;;;;5090466;28;20495;-83
2021/06/27 14:03:04;;;;;;;4.00;3.70;;;28.10;49.40;;;;;;5091470;28;20467;-80
2021/06/27 14:05:31;;;;;;;3.90;3.70;;;28.40;49.60;;;;;;5076426;28;20449;-78
2021/06/27 14:07:58;;;;;;;4.10;3.80;;;28.80;49.10;;;;;;5069914;28;20460;-79
2021/06/27 14:10:27;;;;;;;4.13;3.73;;;28.80;49.00;;;;;;5064959;28;20456;-77
2021/06/27 14:12:55;;;;;;;3.43;3.23;;;28.90;48.50;;;;;;5062882;28;20477;-85
2021/06/27 14:15:23;;;;;;;3.73;3.53;;;28.70;47.90;;;;;;5048345;28;20450;-78
2021/06/27 14:17:55;;;;;;;3.80;3.60;;;29.00;48.30;;;;;;5055340;28;20449;-76
2021/06/27 14:20:23;;;;;;;4.00;3.73;;;29.30;48.00;;;;;;5062757;28;20559;-77
2021/06/27 14:22:51;;;;;;;4.10;3.90;;;29.30;48.40;;;;;;5056721;28;20468;-77
2021/06/27 14:25:18;;;;;;;3.77;3.57;;;29.30;48.40;;;;;;5069393;28;20461;-76
2021/06/27 14:27:45;;;;;;;3.77;3.57;;;29.60;48.50;;;;;;5056240;28;21092;-77
2021/06/27 14:30:13;;;;;;;3.77;3.57;;;29.30;48.00;;;;;;5057316;28;20496;-77
2021/06/27 14:32:40;;;;;;;4.70;4.40;;;29.00;47.80;;;;;;5063989;28;20464;-77
2021/06/27 14:35:11;;;;;;;3.57;3.37;;;28.90;48.40;;;;;;5042468;28;20456;-76
2021/06/27 14:37:42;;;;;;;4.60;4.20;;;29.00;48.30;;;;;;5059228;28;20464;-77